Hatgal, Mongolia
Current Conditions -  °F | °C
As of 8:30 AM on Monday 22 Dec 2014 (Local Time) from UIII Reporting Station
Haze Haze  
Wind Chill:   Ceiling: 10000
Heat Index:   Visibility: 2.5mi
Dew Point: -2°   Wind: 0mph
Humidity: 85%   Direction: NA
Pressure: 30.15"   Gusts: NA
Location:  50.45°N, 100.15°E
Report Text: UIII 220030Z 00000MPS 4000 BR SCT003 OVC100 M17/M19 Q1021 TEMPO0300 FZFG VV001 RMK QBB100 QFE721/0961 30390142
Loading
Personal Weather Stations






























Interactive Weather Map New forecast layout! Learn more

10-Day Weather Forecast

Advertisements
Track Severe Weather on mobile